sensor_id;sensor_type;location;lat;lon;timestamp;pressure;altitude;pressure_sealevel;temperature;humidity
56330;BME280;42236;48.058;10.632;2022-10-14T00:00:35;94970.66;;;11.56;100.00
56330;BME280;42236;48.058;10.632;2022-10-14T00:03:21;94967.41;;;11.50;100.00
56330;BME280;42236;48.058;10.632;2022-10-14T00:06:10;94963.13;;;11.49;100.00
56330;BME280;42236;48.058;10.632;2022-10-14T00:09:02;94965.38;;;11.47;100.00
56330;BME280;42236;48.058;10.632;2022-10-14T00:11:48;94960.31;;;11.46;100.00
56330;BME280;42236;48.058;10.632;2022-10-14T00:14:33;94960.31;;;11.46;100.00
56330;BME280;42236;48.058;10.632;2022-10-14T00:17:19;94958.72;;;11.45;100.00
56330;BME280;42236;48.058;10.632;2022-10-14T00:20:05;94967.19;;;11.43;100.00
56330;BME280;42236;48.058;10.632;2022-10-14T00:22:51;94963.81;;;11.46;100.00
56330;BME280;42236;48.058;10.632;2022-10-14T00:25:37;94957.38;;;11.51;100.00
56330;BME280;42236;48.058;10.632;2022-10-14T00:28:23;94970.00;;;11.59;100.00
56330;BME280;42236;48.058;10.632;2022-10-14T00:31:09;94972.47;;;11.64;100.00
56330;BME280;42236;48.058;10.632;2022-10-14T00:33:54;94976.84;;;11.69;100.00
56330;BME280;42236;48.058;10.632;2022-10-14T00:36:41;94976.53;;;11.70;100.00
56330;BME280;42236;48.058;10.632;2022-10-14T00:39:27;94976.63;;;11.74;100.00
56330;BME280;42236;48.058;10.632;2022-10-14T00:42:13;94982.94;;;11.78;100.00
56330;BME280;42236;48.058;10.632;2022-10-14T00:45:04;94977.66;;;11.82;100.00
56330;BME280;42236;48.058;10.632;2022-10-14T00:47:51;94985.84;;;11.85;100.00
56330;BME280;42236;48.058;10.632;2022-10-14T00:50:41;94980.16;;;11.87;100.00
56330;BME280;42236;48.058;10.632;2022-10-14T00:53:28;94986.78;;;11.89;100.00
56330;BME280;42236;48.058;10.632;2022-10-14T00:56:16;94986.09;;;11.92;100.00
56330;BME280;42236;48.058;10.632;2022-10-14T00:59:05;94979.56;;;11.93;100.00
56330;BME280;42236;48.058;10.632;2022-10-14T01:01:51;94988.13;;;11.95;100.00
56330;BME280;42236;48.058;10.632;2022-10-14T01:04:38;94984.97;;;11.93;100.00
56330;BME280;42236;48.058;10.632;2022-10-14T01:07:42;94984.19;;;11.93;100.00
56330;BME280;42236;48.058;10.632;2022-10-14T01:10:38;94985.66;;;11.90;100.00
56330;BME280;42236;48.058;10.632;2022-10-14T01:13:33;94993.31;;;11.88;100.00
56330;BME280;42236;48.058;10.632;2022-10-14T01:16:29;94986.34;;;11.87;100.00
56330;BME280;42236;48.058;10.632;2022-10-14T01:28:50;94981.16;;;11.94;100.00
56330;BME280;42236;48.058;10.632;2022-10-14T01:31:44;94980.38;;;11.94;100.00
56330;BME280;42236;48.058;10.632;2022-10-14T01:34:37;94979.56;;;11.93;100.00
56330;BME280;42236;48.058;10.632;2022-10-14T01:37:27;94978.00;;;11.92;100.00
56330;BME280;42236;48.058;10.632;2022-10-14T01:40:24;94978.00;;;11.92;100.00
56330;BME280;42236;48.058;10.632;2022-10-14T01:43:12;94974.06;;;11.90;100.00
56330;BME280;42236;48.058;10.632;2022-10-14T01:46:00;94980.25;;;11.90;100.00
56330;BME280;42236;48.058;10.632;2022-10-14T01:48:54;94977.53;;;11.90;100.00
56330;BME280;42236;48.058;10.632;2022-10-14T01:51:47;94973.59;;;11.88;100.00
56330;BME280;42236;48.058;10.632;2022-10-14T01:54:38;94980.94;;;11.87;100.00
56330;BME280;42236;48.058;10.632;2022-10-14T01:57:27;94977.75;;;11.85;100.00
56330;BME280;42236;48.058;10.632;2022-10-14T02:00:14;94970.78;;;11.84;100.00
56330;BME280;42236;48.058;10.632;2022-10-14T02:03:00;94967.63;;;11.82;100.00
56330;BME280;42236;48.058;10.632;2022-10-14T02:06:02;94971.44;;;11.81;100.00
56330;BME280;42236;48.058;10.632;2022-10-14T02:09:15;94966.72;;;11.78;100.00
56330;BME280;42236;48.058;10.632;2022-10-14T02:12:36;94961.31;;;11.78;100.00
56330;BME280;42236;48.058;10.632;2022-10-14T02:15:32;94969.75;;;11.77;100.00
56330;BME280;42236;48.058;10.632;2022-10-14T02:18:29;94962.00;;;11.75;100.00
56330;BME280;42236;48.058;10.632;2022-10-14T02:21:35;94958.16;;;11.76;100.00
56330;BME280;42236;48.058;10.632;2022-10-14T02:24:30;94956.69;;;11.79;100.00
56330;BME280;42236;48.058;10.632;2022-10-14T02:27:18;94959.06;;;11.80;100.00
56330;BME280;42236;48.058;10.632;2022-10-14T02:30:05;94952.19;;;11.83;100.00
56330;BME280;42236;48.058;10.632;2022-10-14T02:32:52;94959.97;;;11.84;100.00
56330;BME280;42236;48.058;10.632;2022-10-14T02:35:38;94954.56;;;11.84;100.00
56330;BME280;42236;48.058;10.632;2022-10-14T02:38:26;94947.22;;;11.85;100.00
56330;BME280;42236;48.058;10.632;2022-10-14T02:41:15;94946.91;;;11.86;100.00
56330;BME280;42236;48.058;10.632;2022-10-14T02:44:04;94942.31;;;11.87;100.00
56330;BME280;42236;48.058;10.632;2022-10-14T02:46:50;94951.19;;;11.87;100.00
56330;BME280;42236;48.058;10.632;2022-10-14T02:49:38;94944.19;;;11.86;100.00
56330;BME280;42236;48.058;10.632;2022-10-14T02:52:24;94943.75;;;11.84;100.00
56330;BME280;42236;48.058;10.632;2022-10-14T02:55:10;94944.84;;;11.83;100.00
56330;BME280;42236;48.058;10.632;2022-10-14T02:57:56;94940.59;;;11.82;100.00
56330;BME280;42236;48.058;10.632;2022-10-14T03:00:41;94941.38;;;11.83;100.00
56330;BME280;42236;48.058;10.632;2022-10-14T03:03:27;94942.84;;;11.80;100.00
56330;BME280;42236;48.058;10.632;2022-10-14T03:06:13;94947.34;;;11.76;100.00
56330;BME280;42236;48.058;10.632;2022-10-14T03:08:58;94943.41;;;11.73;100.00
56330;BME280;42236;48.058;10.632;2022-10-14T03:11:44;94939.47;;;11.71;100.00
56330;BME280;42236;48.058;10.632;2022-10-14T03:14:30;94938.69;;;11.70;100.00
56330;BME280;42236;48.058;10.632;2022-10-14T03:17:15;94940.59;;;11.70;100.00
56330;BME280;42236;48.058;10.632;2022-10-14T03:20:03;94937.13;;;11.69;100.00
56330;BME280;42236;48.058;10.632;2022-10-14T03:22:49;94935.84;;;11.67;100.00
56330;BME280;42236;48.058;10.632;2022-10-14T03:25:34;94926.88;;;11.63;100.00
56330;BME280;42236;48.058;10.632;2022-10-14T03:28:20;94927.31;;;11.65;100.00
56330;BME280;42236;48.058;10.632;2022-10-14T03:31:06;94920.00;;;11.65;100.00
56330;BME280;42236;48.058;10.632;2022-10-14T03:33:52;94917.63;;;11.64;100.00
56330;BME280;42236;48.058;10.632;2022-10-14T03:36:38;94918.31;;;11.61;100.00
56330;BME280;42236;48.058;10.632;2022-10-14T03:39:23;94918.56;;;11.56;100.00
56330;BME280;42236;48.058;10.632;2022-10-14T03:42:10;94918.09;;;11.53;100.00
56330;BME280;42236;48.058;10.632;2022-10-14T03:44:55;94910.31;;;11.52;100.00
56330;BME280;42236;48.058;10.632;2022-10-14T03:47:41;94911.78;;;11.49;100.00
56330;BME280;42236;48.058;10.632;2022-10-14T03:50:27;94909.09;;;11.49;100.00
56330;BME280;42236;48.058;10.632;2022-10-14T03:53:12;94914.94;;;11.51;100.00
56330;BME280;42236;48.058;10.632;2022-10-14T03:55:58;94904.59;;;11.53;100.00
56330;BME280;42236;48.058;10.632;2022-10-14T03:58:44;94904.47;;;11.50;100.00
56330;BME280;42236;48.058;10.632;2022-10-14T04:01:30;94900.19;;;11.49;100.00
56330;BME280;42236;48.058;10.632;2022-10-14T04:04:15;94896.25;;;11.46;100.00
56330;BME280;42236;48.058;10.632;2022-10-14T04:07:19;94889.31;;;11.45;100.00
56330;BME280;42236;48.058;10.632;2022-10-14T04:10:06;94886.03;;;11.40;100.00
56330;BME280;42236;48.058;10.632;2022-10-14T04:12:52;94890.19;;;11.37;100.00
56330;BME280;42236;48.058;10.632;2022-10-14T04:15:38;94879.84;;;11.39;100.00
56330;BME280;42236;48.058;10.632;2022-10-14T04:18:24;94887.72;;;11.44;100.00
56330;BME280;42236;48.058;10.632;2022-10-14T04:21:10;94882.75;;;11.46;100.00
56330;BME280;42236;48.058;10.632;2022-10-14T04:23:56;94887.72;;;11.44;100.00
56330;BME280;42236;48.058;10.632;2022-10-14T04:26:42;94884.22;;;11.44;100.00
56330;BME280;42236;48.058;10.632;2022-10-14T04:29:28;94881.53;;;11.44;100.00
56330;BME280;42236;48.058;10.632;2022-10-14T04:32:13;94875.34;;;11.43;100.00
56330;BME280;42236;48.058;10.632;2022-10-14T04:35:02;94877.69;;;11.45;100.00
56330;BME280;42236;48.058;10.632;2022-10-14T04:37:48;94885.47;;;11.46;100.00
56330;BME280;42236;48.058;10.632;2022-10-14T04:40:36;94879.16;;;11.42;100.00
56330;BME280;42236;48.058;10.632;2022-10-14T04:43:22;94869.81;;;11.40;100.00
56330;BME280;42236;48.058;10.632;2022-10-14T04:46:08;94869.47;;;11.41;100.00
56330;BME280;42236;48.058;10.632;2022-10-14T04:48:53;94869.47;;;11.41;100.00
56330;BME280;42236;48.058;10.632;2022-10-14T04:51:39;94855.97;;;11.41;100.00
56330;BME280;42236;48.058;10.632;2022-10-14T04:54:25;94854.84;;;11.42;100.00
56330;BME280;42236;48.058;10.632;2022-10-14T04:57:10;94855.97;;;11.41;100.00
56330;BME280;42236;48.058;10.632;2022-10-14T04:59:57;94849.78;;;11.41;100.00
56330;BME280;42236;48.058;10.632;2022-10-14T05:02:42;94844.72;;;11.39;100.00
56330;BME280;42236;48.058;10.632;2022-10-14T05:05:28;94839.66;;;11.38;100.00
56330;BME280;42236;48.058;10.632;2022-10-14T05:08:14;94838.09;;;11.37;100.00
56330;BME280;42236;48.058;10.632;2022-10-14T05:10:59;94833.47;;;11.37;100.00
56330;BME280;42236;48.058;10.632;2022-10-14T05:13:45;94835.06;;;11.38;100.00
56330;BME280;42236;48.058;10.632;2022-10-14T05:16:31;94831.13;;;11.36;100.00
56330;BME280;42236;48.058;10.632;2022-10-14T05:19:16;94829.88;;;11.33;100.00
56330;BME280;42236;48.058;10.632;2022-10-14T05:22:02;94827.84;;;11.30;100.00
56330;BME280;42236;48.058;10.632;2022-10-14T05:24:48;94827.53;;;11.31;100.00
56330;BME280;42236;48.058;10.632;2022-10-14T05:27:34;94829.44;;;11.31;100.00
56330;BME280;42236;48.058;10.632;2022-10-14T05:30:19;94832.03;;;11.27;100.00
56330;BME280;42236;48.058;10.632;2022-10-14T05:33:05;94826.16;;;11.25;100.00
56330;BME280;42236;48.058;10.632;2022-10-14T05:35:51;94821.78;;;11.21;100.00
56330;BME280;42236;48.058;10.632;2022-10-14T05:38:36;94829.88;;;11.21;100.00
56330;BME280;42236;48.058;10.632;2022-10-14T05:41:22;94820.53;;;11.18;100.00
56330;BME280;42236;48.058;10.632;2022-10-14T05:44:10;94824.25;;;11.14;100.00
56330;BME280;42236;48.058;10.632;2022-10-14T05:46:56;94826.63;;;11.15;100.00
56330;BME280;42236;48.058;10.632;2022-10-14T05:49:41;94830.91;;;11.16;100.00
56330;BME280;42236;48.058;10.632;2022-10-14T05:52:27;94828.56;;;11.15;100.00
56330;BME280;42236;48.058;10.632;2022-10-14T05:55:14;94824.25;;;11.14;100.00
56330;BME280;42236;48.058;10.632;2022-10-14T05:58:00;94821.22;;;11.15;100.00
56330;BME280;42236;48.058;10.632;2022-10-14T06:00:45;94819.66;;;11.14;100.00
56330;BME280;42236;48.058;10.632;2022-10-14T06:03:31;94822.38;;;11.14;100.00
56330;BME280;42236;48.058;10.632;2022-10-14T06:06:17;94823.59;;;11.17;100.00
56330;BME280;42236;48.058;10.632;2022-10-14T06:09:03;94815.50;;;11.17;100.00
56330;BME280;42236;48.058;10.632;2022-10-14T06:11:49;94808.97;;;11.18;100.00
56330;BME280;42236;48.058;10.632;2022-10-14T06:14:34;94815.28;;;11.22;100.00
56330;BME280;42236;48.058;10.632;2022-10-14T06:17:22;94812.34;;;11.27;100.00
56330;BME280;42236;48.058;10.632;2022-10-14T06:20:09;94803.44;;;11.26;100.00
56330;BME280;42236;48.058;10.632;2022-10-14T06:22:57;94808.41;;;11.24;100.00
56330;BME280;42236;48.058;10.632;2022-10-14T06:25:43;94815.47;;;11.29;100.00
56330;BME280;42236;48.058;10.632;2022-10-14T06:28:29;94806.25;;;11.30;100.00
56330;BME280;42236;48.058;10.632;2022-10-14T06:31:15;94799.72;;;11.31;100.00
56330;BME280;42236;48.058;10.632;2022-10-14T06:34:04;94800.97;;;11.34;100.00
56330;BME280;42236;48.058;10.632;2022-10-14T06:36:49;94792.50;;;11.35;100.00
56330;BME280;42236;48.058;10.632;2022-10-14T06:39:35;94800.03;;;11.42;100.00
56330;BME280;42236;48.058;10.632;2022-10-14T06:42:21;94802.16;;;11.48;100.00
56330;BME280;42236;48.058;10.632;2022-10-14T06:45:06;94802.25;;;11.52;100.00
56330;BME280;42236;48.058;10.632;2022-10-14T06:47:52;94802.00;;;11.57;100.00
56330;BME280;42236;48.058;10.632;2022-10-14T06:51:03;94801.19;;;11.69;100.00
56330;BME280;42236;48.058;10.632;2022-10-14T06:53:49;94793.72;;;11.78;100.00
56330;BME280;42236;48.058;10.632;2022-10-14T06:56:35;94795.50;;;11.86;100.00
56330;BME280;42236;48.058;10.632;2022-10-14T06:59:21;94793.25;;;11.88;100.00
56330;BME280;42236;48.058;10.632;2022-10-14T07:02:08;94787.59;;;11.93;100.00
56330;BME280;42236;48.058;10.632;2022-10-14T07:04:54;94787.38;;;11.99;100.00
56330;BME280;42236;48.058;10.632;2022-10-14T07:07:39;94787.38;;;11.99;100.00
56330;BME280;42236;48.058;10.632;2022-10-14T07:10:25;94792.16;;;12.05;100.00
56330;BME280;42236;48.058;10.632;2022-10-14T07:13:11;94794.09;;;12.05;100.00
56330;BME280;42236;48.058;10.632;2022-10-14T07:18:35;94792.28;;;12.09;100.00
56330;BME280;42236;48.058;10.632;2022-10-14T07:21:21;94797.25;;;12.07;100.00
56330;BME280;42236;48.058;10.632;2022-10-14T07:24:07;94791.50;;;12.08;100.00
56330;BME280;42236;48.058;10.632;2022-10-14T07:26:53;94790.47;;;12.13;100.00
56330;BME280;42236;48.058;10.632;2022-10-14T07:29:38;94791.06;;;12.22;100.00
56330;BME280;42236;48.058;10.632;2022-10-14T07:32:24;94797.56;;;12.33;100.00
56330;BME280;42236;48.058;10.632;2022-10-14T07:35:10;94793.03;;;12.37;100.00
56330;BME280;42236;48.058;10.632;2022-10-14T07:49:09;94795.66;;;12.50;100.00
56330;BME280;42236;48.058;10.632;2022-10-14T07:51:55;94798.97;;;12.59;99.62
56330;BME280;42236;48.058;10.632;2022-10-14T07:54:41;94801.22;;;12.73;99.78
56330;BME280;42236;48.058;10.632;2022-10-14T07:57:27;94795.72;;;12.85;99.25
56330;BME280;42236;48.058;10.632;2022-10-14T08:00:12;94806.38;;;12.94;98.25
56330;BME280;42236;48.058;10.632;2022-10-14T08:02:58;94803.41;;;12.99;98.70
56330;BME280;42236;48.058;10.632;2022-10-14T08:05:44;94799.97;;;13.02;97.55
56330;BME280;42236;48.058;10.632;2022-10-14T08:08:30;94805.16;;;13.07;97.83
56330;BME280;42236;48.058;10.632;2022-10-14T08:11:19;94804.16;;;13.15;97.23
56330;BME280;42236;48.058;10.632;2022-10-14T08:14:05;94810.47;;;13.19;97.06
56330;BME280;42236;48.058;10.632;2022-10-14T08:16:51;94800.47;;;13.23;96.38
56330;BME280;42236;48.058;10.632;2022-10-14T08:19:36;94810.38;;;13.32;96.42
56330;BME280;42236;48.058;10.632;2022-10-14T08:22:22;94803.97;;;13.40;96.03
56330;BME280;42236;48.058;10.632;2022-10-14T08:25:08;94804.56;;;13.49;96.40
56330;BME280;42236;48.058;10.632;2022-10-14T08:27:53;94798.28;;;13.64;96.34
56330;BME280;42236;48.058;10.632;2022-10-14T08:30:41;94797.03;;;13.78;95.68
56330;BME280;42236;48.058;10.632;2022-10-14T08:33:27;94799.50;;;13.86;94.73
56330;BME280;42236;48.058;10.632;2022-10-14T08:36:13;94797.78;;;13.98;94.09
56330;BME280;42236;48.058;10.632;2022-10-14T08:38:59;94796.00;;;14.05;94.12
56330;BME280;42236;48.058;10.632;2022-10-14T08:45:11;94793.78;;;14.30;93.55
56330;BME280;42236;48.058;10.632;2022-10-14T08:48:02;94794.28;;;14.40;92.53
56330;BME280;42236;48.058;10.632;2022-10-14T08:50:53;94786.66;;;14.45;91.69
56330;BME280;42236;48.058;10.632;2022-10-14T08:53:48;94787.47;;;14.49;89.81
56330;BME280;42236;48.058;10.632;2022-10-14T08:56:35;94786.09;;;14.56;90.94
56330;BME280;42236;48.058;10.632;2022-10-14T08:59:22;94784.69;;;14.65;90.62
56330;BME280;42236;48.058;10.632;2022-10-14T09:05:14;94783.84;;;14.84;90.60
56330;BME280;42236;48.058;10.632;2022-10-14T09:08:01;94784.38;;;14.93;90.48
56330;BME280;42236;48.058;10.632;2022-10-14T09:10:47;94782.59;;;15.05;90.26
56330;BME280;42236;48.058;10.632;2022-10-14T09:13:38;94781.59;;;15.17;88.67
56330;BME280;42236;48.058;10.632;2022-10-14T09:16:35;94779.44;;;15.29;87.24
56330;BME280;42236;48.058;10.632;2022-10-14T09:19:29;94776.94;;;15.44;87.17
56330;BME280;42236;48.058;10.632;2022-10-14T09:22:15;94776.72;;;15.56;85.78
56330;BME280;42236;48.058;10.632;2022-10-14T09:25:01;94777.63;;;15.67;86.92
56330;BME280;42236;48.058;10.632;2022-10-14T09:27:47;94772.69;;;15.73;84.98
56330;BME280;42236;48.058;10.632;2022-10-14T09:30:35;94776.28;;;15.81;85.19
56330;BME280;42236;48.058;10.632;2022-10-14T09:33:22;94777.16;;;15.88;85.13
56330;BME280;42236;48.058;10.632;2022-10-14T09:36:17;94776.03;;;15.93;82.26
56330;BME280;42236;48.058;10.632;2022-10-14T09:39:03;94772.16;;;15.94;83.34
56330;BME280;42236;48.058;10.632;2022-10-14T09:41:51;94775.72;;;15.98;82.79
56330;BME280;42236;48.058;10.632;2022-10-14T09:44:38;94777.34;;;16.06;83.38
56330;BME280;42236;48.058;10.632;2022-10-14T09:47:24;94772.75;;;16.14;83.40
56330;BME280;42236;48.058;10.632;2022-10-14T09:50:19;94765.84;;;16.20;82.40
56330;BME280;42236;48.058;10.632;2022-10-14T09:53:14;94762.81;;;16.29;82.00
56330;BME280;42236;48.058;10.632;2022-10-14T09:56:03;94762.13;;;16.39;82.42
56330;BME280;42236;48.058;10.632;2022-10-14T09:58:51;94763.00;;;16.47;81.89
56330;BME280;42236;48.058;10.632;2022-10-14T10:01:48;94761.53;;;16.56;79.86
56330;BME280;42236;48.058;10.632;2022-10-14T10:10:17;94763.69;;;16.81;78.91
56330;BME280;42236;48.058;10.632;2022-10-14T10:13:19;94748.13;;;16.81;76.93
56330;BME280;42236;48.058;10.632;2022-10-14T10:16:17;94742.28;;;16.79;77.65
56330;BME280;42236;48.058;10.632;2022-10-14T10:19:22;94742.28;;;16.79;76.66
56330;BME280;42236;48.058;10.632;2022-10-14T10:27:56;94752.16;;;16.98;78.13
56330;BME280;42236;48.058;10.632;2022-10-14T10:30:51;94752.59;;;17.08;75.81
56330;BME280;42236;48.058;10.632;2022-10-14T10:33:53;94749.56;;;17.16;75.10
56330;BME280;42236;48.058;10.632;2022-10-14T10:36:45;94746.84;;;17.20;75.38
56330;BME280;42236;48.058;10.632;2022-10-14T10:40:00;94741.78;;;17.22;75.09
56330;BME280;42236;48.058;10.632;2022-10-14T10:42:54;94736.34;;;17.22;76.33
56330;BME280;42236;48.058;10.632;2022-10-14T10:46:06;94735.19;;;17.23;72.82
56330;BME280;42236;48.058;10.632;2022-10-14T10:49:27;94730.88;;;17.18;74.76
56330;BME280;42236;48.058;10.632;2022-10-14T10:59:09;94710.63;;;17.19;72.73
56330;BME280;42236;48.058;10.632;2022-10-14T11:02:30;94714.50;;;17.15;73.61
56330;BME280;42236;48.058;10.632;2022-10-14T11:05:42;94712.94;;;17.17;75.74
56330;BME280;42236;48.058;10.632;2022-10-14T11:08:42;94710.63;;;17.16;75.25
56330;BME280;42236;48.058;10.632;2022-10-14T11:15:02;94700.38;;;16.98;73.40
56330;BME280;42236;48.058;10.632;2022-10-14T11:18:07;94696.91;;;17.01;74.76
56330;BME280;42236;48.058;10.632;2022-10-14T11:21:24;94689.09;;;17.00;72.42
56330;BME280;42236;48.058;10.632;2022-10-14T11:24:26;94688.69;;;16.98;74.82
56330;BME280;42236;48.058;10.632;2022-10-14T11:27:30;94681.25;;;16.91;74.28
56330;BME280;42236;48.058;10.632;2022-10-14T11:36:49;94689.41;;;16.91;71.91
56330;BME280;42236;48.058;10.632;2022-10-14T11:40:23;94685.59;;;16.99;72.61
56330;BME280;42236;48.058;10.632;2022-10-14T11:43:21;94688.00;;;17.12;74.90
56330;BME280;42236;48.058;10.632;2022-10-14T11:46:18;94671.63;;;17.12;74.17
56330;BME280;42236;48.058;10.632;2022-10-14T11:49:12;94675.94;;;17.16;74.15
56330;BME280;42236;48.058;10.632;2022-10-14T11:52:06;94675.19;;;17.19;74.84
56330;BME280;42236;48.058;10.632;2022-10-14T11:55:02;94676.34;;;17.18;73.50
56330;BME280;42236;48.058;10.632;2022-10-14T11:57:51;94671.28;;;17.13;74.23
56330;BME280;42236;48.058;10.632;2022-10-14T12:00:53;94677.09;;;17.12;73.98
56330;BME280;42236;48.058;10.632;2022-10-14T12:09:41;94674.38;;;16.56;73.62
56330;BME280;42236;48.058;10.632;2022-10-14T12:12:28;94672.75;;;16.48;76.05
56330;BME280;42236;48.058;10.632;2022-10-14T12:15:17;94674.47;;;16.23;76.59
56330;BME280;42236;48.058;10.632;2022-10-14T12:18:05;94679.16;;;16.22;77.39
56330;BME280;42236;48.058;10.632;2022-10-14T12:20:54;94677.59;;;16.25;77.83
56330;BME280;42236;48.058;10.632;2022-10-14T12:23:57;94679.50;;;16.20;76.48
56330;BME280;42236;48.058;10.632;2022-10-14T12:26:54;94677.97;;;16.23;77.69
56330;BME280;42236;48.058;10.632;2022-10-14T12:29:43;94677.50;;;16.14;77.83
56330;BME280;42236;48.058;10.632;2022-10-14T12:32:30;94670.06;;;16.07;78.13
56330;BME280;42236;48.058;10.632;2022-10-14T12:42:04;94664.91;;;15.98;78.71
56330;BME280;42236;48.058;10.632;2022-10-14T12:45:02;94682.41;;;15.97;79.29
56330;BME280;42236;48.058;10.632;2022-10-14T12:48:17;94669.38;;;15.80;79.93
56330;BME280;42236;48.058;10.632;2022-10-14T12:51:11;94662.56;;;15.60;80.76
56330;BME280;42236;48.058;10.632;2022-10-14T12:54:13;94666.31;;;15.48;82.58
56330;BME280;42236;48.058;10.632;2022-10-14T12:57:17;94665.44;;;15.40;82.33
56330;BME280;42236;48.058;10.632;2022-10-14T13:03:20;94659.06;;;15.29;83.85
56330;BME280;42236;48.058;10.632;2022-10-14T13:09:29;94651.66;;;15.26;85.16
56330;BME280;42236;48.058;10.632;2022-10-14T13:24:34;94624.19;;;15.68;86.56
56330;BME280;42236;48.058;10.632;2022-10-14T13:30:34;94621.41;;;15.61;86.15
56330;BME280;42236;48.058;10.632;2022-10-14T13:33:29;94624.84;;;15.58;86.84
56330;BME280;42236;48.058;10.632;2022-10-14T13:36:26;94616.75;;;15.62;86.29
56330;BME280;42236;48.058;10.632;2022-10-14T13:39:16;94618.28;;;15.63;86.25
56330;BME280;42236;48.058;10.632;2022-10-14T13:42:02;94623.00;;;15.66;86.30
56330;BME280;42236;48.058;10.632;2022-10-14T13:44:48;94621.88;;;15.70;86.45
56330;BME280;42236;48.058;10.632;2022-10-14T13:47:39;94622.34;;;15.76;86.18
56330;BME280;42236;48.058;10.632;2022-10-14T13:50:33;94614.97;;;15.76;86.60
56330;BME280;42236;48.058;10.632;2022-10-14T13:53:21;94611.47;;;15.76;86.09
56330;BME280;42236;48.058;10.632;2022-10-14T13:56:33;94614.56;;;15.74;85.58
56330;BME280;42236;48.058;10.632;2022-10-14T13:59:20;94605.97;;;15.72;86.14
56330;BME280;42236;48.058;10.632;2022-10-14T14:02:23;94607.94;;;15.72;86.27
56330;BME280;42236;48.058;10.632;2022-10-14T14:05:13;94613.00;;;15.73;86.07
56330;BME280;42236;48.058;10.632;2022-10-14T14:07:59;94614.56;;;15.74;86.11
56330;BME280;42236;48.058;10.632;2022-10-14T14:10:54;94609.94;;;15.78;85.80
56330;BME280;42236;48.058;10.632;2022-10-14T14:13:58;94610.75;;;15.83;85.91
56330;BME280;42236;48.058;10.632;2022-10-14T14:20:24;94613.91;;;15.88;85.75
56330;BME280;42236;48.058;10.632;2022-10-14T14:23:11;94608.50;;;15.92;85.67
56330;BME280;42236;48.058;10.632;2022-10-14T14:25:57;94608.50;;;15.92;85.39
56330;BME280;42236;48.058;10.632;2022-10-14T14:28:45;94606.19;;;15.94;85.24
56330;BME280;42236;48.058;10.632;2022-10-14T14:31:32;94608.16;;;15.97;84.74
56330;BME280;42236;48.058;10.632;2022-10-14T14:34:19;94601.56;;;15.98;84.74
56330;BME280;42236;48.058;10.632;2022-10-14T14:37:06;94600.41;;;15.99;85.20
56330;BME280;42236;48.058;10.632;2022-10-14T14:39:59;94597.66;;;15.99;84.70
56330;BME280;42236;48.058;10.632;2022-10-14T14:42:47;94594.59;;;16.04;84.52
56330;BME280;42236;48.058;10.632;2022-10-14T14:45:41;94611.75;;;16.08;84.53
56330;BME280;42236;48.058;10.632;2022-10-14T14:48:29;94590.75;;;16.09;84.59
56330;BME280;42236;48.058;10.632;2022-10-14T14:51:39;94593.81;;;16.04;84.64
56330;BME280;42236;48.058;10.632;2022-10-14T14:54:26;94591.50;;;16.02;84.93
56330;BME280;42236;48.058;10.632;2022-10-14T14:57:22;94589.50;;;15.99;84.65
56330;BME280;42236;48.058;10.632;2022-10-14T15:00:17;94589.84;;;15.94;84.71
56330;BME280;42236;48.058;10.632;2022-10-14T15:03:03;94589.84;;;15.90;85.02
56330;BME280;42236;48.058;10.632;2022-10-14T15:05:53;94589.78;;;15.87;85.64
56330;BME280;42236;48.058;10.632;2022-10-14T15:08:40;94578.91;;;15.87;85.97
56330;BME280;42236;48.058;10.632;2022-10-14T15:11:26;94582.75;;;15.82;86.10
56330;BME280;42236;48.058;10.632;2022-10-14T15:14:47;94581.97;;;15.78;86.26
56330;BME280;42236;48.058;10.632;2022-10-14T15:24:30;94581.38;;;15.62;86.83
56330;BME280;42236;48.058;10.632;2022-10-14T15:27:39;94581.75;;;15.60;86.93
56330;BME280;42236;48.058;10.632;2022-10-14T15:33:26;94569.59;;;15.50;86.98
56330;BME280;42236;48.058;10.632;2022-10-14T15:36:12;94570.00;;;15.49;86.90
56330;BME280;42236;48.058;10.632;2022-10-14T15:38:58;94573.84;;;15.48;86.78
56330;BME280;42236;48.058;10.632;2022-10-14T15:41:46;94573.84;;;15.44;86.85
56330;BME280;42236;48.058;10.632;2022-10-14T15:44:32;94562.50;;;15.39;86.94
56330;BME280;42236;48.058;10.632;2022-10-14T15:47:18;94562.09;;;15.36;87.26
56330;BME280;42236;48.058;10.632;2022-10-14T15:50:13;94561.69;;;15.34;87.02
56330;BME280;42236;48.058;10.632;2022-10-14T15:52:59;94553.47;;;15.27;87.44
56330;BME280;42236;48.058;10.632;2022-10-14T15:55:45;94559.25;;;15.22;87.42
56330;BME280;42236;48.058;10.632;2022-10-14T15:58:30;94563.47;;;15.20;86.97
56330;BME280;42236;48.058;10.632;2022-10-14T16:01:19;94560.28;;;15.10;86.88
56330;BME280;42236;48.058;10.632;2022-10-14T16:04:16;94560.56;;;15.02;86.58
56330;BME280;42236;48.058;10.632;2022-10-14T16:07:03;94554.69;;;15.00;86.50
56330;BME280;42236;48.058;10.632;2022-10-14T16:09:50;94562.75;;;14.92;86.48
56330;BME280;42236;48.058;10.632;2022-10-14T16:12:36;94558.41;;;14.84;86.59
56330;BME280;42236;48.058;10.632;2022-10-14T16:15:37;94555.25;;;14.79;86.88
56330;BME280;42236;48.058;10.632;2022-10-14T16:18:24;94567.25;;;14.78;87.24
56330;BME280;42236;48.058;10.632;2022-10-14T16:21:14;94550.53;;;14.76;87.12
56330;BME280;42236;48.058;10.632;2022-10-14T16:24:00;94552.06;;;14.73;87.41
56330;BME280;42236;48.058;10.632;2022-10-14T16:26:47;94558.22;;;14.70;87.52
56330;BME280;42236;48.058;10.632;2022-10-14T16:29:36;94563.59;;;14.66;87.75